| Date | Time | Temp. (oF) | Dew Point (oF) | Rel. Hum. (%) | Press. (in.) | Wind Dir. | Wind Speed (mph) | Hourly Rainfall (in.) |
|
|---|---|---|---|---|---|---|---|---|---|
| 1 | 02/02 | 00:00 | 15 | 13 | 93 | 30.51 | SSW | 0 | 0.00 |
| 2 | 02/01 | 23:00 | 17 | 14 | 90 | 30.51 | SSW | 0 | 0.00 |
| 3 | 02/01 | 22:00 | 19 | 15 | 87 | 30.51 | SSW | 1 | 0.00 |
| 4 | 02/01 | 21:00 | 22 | 17 | 82 | 30.51 | SSW | 1 | 0.00 |
| 5 | 02/01 | 20:00 | 25 | 18 | 76 | 30.50 | SSW | 0 | 0.00 |
| 6 | 02/01 | 19:00 | 28 | 19 | 70 | 30.49 | SSW | 1 | 0.00 |
| 7 | 02/01 | 18:00 | 32 | 20 | 61 | 30.46 | SSW | 0 | 0.00 |
| 8 | 02/01 | 17:00 | 35 | 19 | 54 | 30.43 | SSE | 3 | 0.00 |
| 9 | 02/01 | 16:00 | 37 | 21 | 53 | 30.42 | NNW | 3 | 0.00 |
| 10 | 02/01 | 15:00 | 38 | 20 | 50 | 30.42 | NW | 2 | 0.00 |
| 11 | 02/01 | 013:59 | 44 | 36 | 74 | 36.00 | 14:00 | 2 | 5.00 |
| 12 | 02/01 | 13:00 | 36 | 24 | 62 | 30.44 | W | 5 | 0.00 |
| 13 | 02/01 | 12:00 | 33 | 23 | 67 | 30.46 | W | 4 | 0.00 |
| 14 | 02/01 | 11:00 | 27 | 23 | 85 | 30.48 | S | 1 | 0.00 |
| 15 | 02/01 | 10:00 | 20 | 19 | 97 | 30.48 | SSE | 1 | 0.00 |
| 16 | 02/01 | 09:00 | 14 | 13 | 99 | 30.47 | SSE | 0 | 0.00 |
| 17 | 02/01 | 08:00 | 7 | 6 | 98 | 30.46 | SSE | 0 | 0.00 |
| 18 | 02/01 | 07:00 | 8 | 7 | 98 | 30.45 | NNE | 0 | 0.00 |
| 19 | 02/01 | 06:00 | 9 | 8 | 98 | 30.44 | NNE | 1 | 0.00 |
| 20 | 02/01 | 05:00 | 10 | 9 | 97 | 30.43 | NNE | 0 | 0.00 |
| 21 | 02/01 | 04:00 | 11 | 10 | 96 | 30.43 | NNE | 0 | 0.00 |
| 22 | 02/01 | 03:00 | 12 | 11 | 96 | 30.42 | NNE | 1 | 0.00 |
| 23 | 02/01 | 02:00 | 13 | 11 | 94 | 30.42 | N | 0 | 0.00 |
| 24 | 02/01 | 01:00 | 15 | 13 | 93 | 30.42 | N | 0 | 0.00 |